createdAt,value
2022-12-23T00:00:27.131Z,53.40
2022-12-23T00:01:27.267Z,53.70
2022-12-23T00:02:27.241Z,51.00
2022-12-23T00:03:27.210Z,50.90
2022-12-23T00:04:27.122Z,65.30
2022-12-23T00:05:30.178Z,54.80
2022-12-23T00:06:27.065Z,53.90
2022-12-23T00:07:27.050Z,53.40
2022-12-23T00:08:27.023Z,54.50
2022-12-23T00:09:27.035Z,56.70
2022-12-23T00:10:27.008Z,57.70
2022-12-23T00:11:27.009Z,66.40
2022-12-23T00:12:26.979Z,56.70
2022-12-23T00:13:26.980Z,68.80
2022-12-23T00:14:26.970Z,56.20
2022-12-23T00:15:26.969Z,58.80
2022-12-23T00:16:26.958Z,57.80
2022-12-23T00:17:26.921Z,59.00
2022-12-23T00:18:26.888Z,54.30
2022-12-23T00:19:26.889Z,54.30
2022-12-23T00:20:26.932Z,48.50
2022-12-23T00:21:26.860Z,49.10
2022-12-23T00:22:26.825Z,48.30
2022-12-23T00:23:26.843Z,50.90
2022-12-23T00:24:26.815Z,46.80
2022-12-23T00:25:26.817Z,48.50
2022-12-23T00:26:26.833Z,53.40
2022-12-23T00:27:26.795Z,45.30
2022-12-23T00:28:26.803Z,46.90
2022-12-23T00:29:26.779Z,43.60
2022-12-23T00:30:26.748Z,38.20
2022-12-23T00:31:26.782Z,40.40
2022-12-23T00:32:26.698Z,40.00
2022-12-23T00:33:26.691Z,50.00
2022-12-23T00:34:26.694Z,44.30
2022-12-23T00:35:26.693Z,51.90
2022-12-23T00:36:26.687Z,43.10
2022-12-23T00:37:26.700Z,51.70
2022-12-23T00:38:26.636Z,48.20
2022-12-23T00:39:26.615Z,47.00
2022-12-23T00:40:33.263Z,64.80
2022-12-23T00:41:26.589Z,49.70
2022-12-23T00:42:26.592Z,59.70
2022-12-23T00:43:26.565Z,50.00
2022-12-23T00:44:26.596Z,70.90
2022-12-23T00:45:26.610Z,55.30
2022-12-23T00:46:26.585Z,56.70
2022-12-23T00:47:26.518Z,59.90
2022-12-23T00:48:26.508Z,60.80
2022-12-23T00:49:26.492Z,59.30
2022-12-23T00:50:26.485Z,62.10
2022-12-23T00:51:26.470Z,59.80
2022-12-23T00:52:26.472Z,67.30
2022-12-23T00:53:26.427Z,67.30
2022-12-23T00:54:26.424Z,69.70
2022-12-23T00:55:26.428Z,70.80
2022-12-23T00:56:26.409Z,70.00
2022-12-23T00:57:26.397Z,65.10
2022-12-23T00:58:26.367Z,76.40
2022-12-23T00:59:26.382Z,64.20
2022-12-23T01:00:26.361Z,65.80
2022-12-23T01:01:26.486Z,63.80
2022-12-23T01:02:26.476Z,66.20
2022-12-23T01:03:26.395Z,64.30
2022-12-23T01:04:26.303Z,57.20
2022-12-23T01:05:26.293Z,62.20
2022-12-23T01:06:26.261Z,65.50
2022-12-23T01:07:26.269Z,59.60
2022-12-23T01:08:26.250Z,63.10
2022-12-23T01:09:26.247Z,59.50
2022-12-23T01:10:26.210Z,58.90
2022-12-23T01:11:26.215Z,59.00
2022-12-23T01:12:26.212Z,60.70
2022-12-23T01:13:26.190Z,64.20
2022-12-23T01:14:26.219Z,59.10
2022-12-23T01:15:26.149Z,58.10
2022-12-23T01:16:26.175Z,66.10
2022-12-23T01:17:26.172Z,49.50
2022-12-23T01:18:26.112Z,56.60
2022-12-23T01:19:26.091Z,58.80
2022-12-23T01:20:26.095Z,52.10
2022-12-23T01:21:26.092Z,47.10
2022-12-23T01:22:26.061Z,52.70
2022-12-23T01:23:26.035Z,55.00
2022-12-23T01:24:26.043Z,55.20
2022-12-23T01:25:26.048Z,52.80
2022-12-23T01:26:26.028Z,54.80
2022-12-23T01:27:26.002Z,59.90
2022-12-23T01:28:25.995Z,57.70
2022-12-23T01:29:25.984Z,63.50
2022-12-23T01:30:25.955Z,72.90
2022-12-23T01:31:26.028Z,66.20
2022-12-23T01:32:25.971Z,68.50
2022-12-23T01:33:25.906Z,74.60
2022-12-23T01:34:29.688Z,66.00
2022-12-23T01:35:25.910Z,77.70
2022-12-23T01:36:25.905Z,84.60
2022-12-23T01:37:25.861Z,83.00
2022-12-23T01:38:25.852Z,76.40
2022-12-23T01:39:25.875Z,68.70
2022-12-23T01:40:25.832Z,72.10
2022-12-23T01:41:25.833Z,72.70
2022-12-23T01:42:25.824Z,74.00
2022-12-23T01:43:25.796Z,80.20
2022-12-23T01:44:25.794Z,87.10
2022-12-23T01:45:25.771Z,77.70
2022-12-23T01:46:25.815Z,74.70
2022-12-23T01:47:25.758Z,81.90
2022-12-23T01:48:25.736Z,71.70
2022-12-23T01:49:25.705Z,82.70
2022-12-23T01:50:25.699Z,87.90
2022-12-23T01:51:25.679Z,89.10
2022-12-23T01:52:25.664Z,82.90
2022-12-23T01:53:25.689Z,87.10
2022-12-23T01:54:25.683Z,71.00
2022-12-23T01:55:25.617Z,88.90
2022-12-23T01:56:25.638Z,87.10
2022-12-23T01:57:25.598Z,80.60
2022-12-23T01:58:25.613Z,92.10
2022-12-23T01:59:25.600Z,90.30
2022-12-23T02:00:25.576Z,100.90
2022-12-23T02:01:25.696Z,85.10
2022-12-23T02:02:25.647Z,86.70
2022-12-23T02:03:25.628Z,93.30
2022-12-23T02:04:25.519Z,88.50
2022-12-23T02:05:25.534Z,79.30
2022-12-23T02:06:25.492Z,89.20
2022-12-23T02:07:25.493Z,102.10
2022-12-23T02:08:25.454Z,102.80
2022-12-23T02:09:25.445Z,99.30
2022-12-23T02:10:25.435Z,102.00
2022-12-23T02:11:25.429Z,114.20
2022-12-23T02:12:25.433Z,95.10
2022-12-23T02:13:25.384Z,101.10
2022-12-23T02:14:25.400Z,95.60
2022-12-23T02:15:25.382Z,96.90
2022-12-23T02:16:25.379Z,106.30
2022-12-23T02:17:25.346Z,134.50
2022-12-23T02:18:25.358Z,132.50
2022-12-23T02:19:25.302Z,151.70
2022-12-23T02:20:25.298Z,145.00
2022-12-23T02:21:25.288Z,129.20
2022-12-23T02:22:25.281Z,137.00
2022-12-23T02:23:25.271Z,133.60
2022-12-23T02:24:25.249Z,118.60
2022-12-23T02:25:25.250Z,104.30
2022-12-23T02:26:25.243Z,107.00
2022-12-23T02:27:25.232Z,98.20
2022-12-23T02:28:25.223Z,108.50
2022-12-23T02:29:25.204Z,115.30
2022-12-23T02:30:25.161Z,131.40
2022-12-23T02:31:25.250Z,119.40
2022-12-23T02:32:25.191Z,201.50
2022-12-23T02:33:25.148Z,160.30
2022-12-23T02:34:25.122Z,135.30
2022-12-23T02:35:25.132Z,140.60
2022-12-23T02:36:25.107Z,142.50
2022-12-23T02:37:25.078Z,129.60
2022-12-23T02:38:25.096Z,132.90
2022-12-23T02:39:25.053Z,117.40
2022-12-23T02:40:25.071Z,142.20
2022-12-23T02:41:25.046Z,174.40
2022-12-23T02:42:25.038Z,113.60
2022-12-23T02:43:25.027Z,113.70
2022-12-23T02:44:25.021Z,126.30
2022-12-23T02:45:25.006Z,101.80
2022-12-23T02:46:25.071Z,114.20
2022-12-23T02:47:25.004Z,121.40
2022-12-23T02:48:24.934Z,107.10
2022-12-23T02:49:24.927Z,106.50
2022-12-23T02:50:24.905Z,92.70
2022-12-23T02:51:24.895Z,89.00
2022-12-23T02:52:24.890Z,110.10
2022-12-23T02:53:24.865Z,99.30
2022-12-23T02:54:24.870Z,105.20
2022-12-23T02:55:24.868Z,101.80
2022-12-23T02:56:24.859Z,122.90
2022-12-23T02:57:24.808Z,103.40
2022-12-23T02:58:24.827Z,108.80
2022-12-23T02:59:24.789Z,110.30
2022-12-23T03:00:24.790Z,115.60
2022-12-23T03:01:24.912Z,112.20
2022-12-23T03:02:24.923Z,111.90
2022-12-23T03:03:24.804Z,113.70
2022-12-23T03:04:24.742Z,134.70
2022-12-23T03:05:24.711Z,142.60
2022-12-23T03:06:24.708Z,95.80
2022-12-23T03:07:24.711Z,108.40
2022-12-23T03:08:24.677Z,106.30
2022-12-23T03:09:24.668Z,109.90
2022-12-23T03:10:24.656Z,107.00
2022-12-23T03:11:24.648Z,102.50
2022-12-23T03:12:24.634Z,98.50
2022-12-23T03:13:24.663Z,103.80
2022-12-23T03:14:24.594Z,103.50
2022-12-23T03:15:24.651Z,112.70
2022-12-23T03:16:24.703Z,116.20
2022-12-23T03:17:24.582Z,112.00
2022-12-23T03:18:24.536Z,99.50
2022-12-23T03:19:24.539Z,119.60
2022-12-23T03:20:24.529Z,114.60
2022-12-23T03:21:24.518Z,110.50
2022-12-23T03:22:24.574Z,94.80
2022-12-23T03:23:24.518Z,115.10
2022-12-23T03:24:24.509Z,119.50
2022-12-23T03:25:24.501Z,116.60
2022-12-23T03:26:24.459Z,104.10
2022-12-23T03:27:24.427Z,106.10
2022-12-23T03:28:24.412Z,110.00
2022-12-23T03:29:24.444Z,110.30
2022-12-23T03:30:24.399Z,109.40
2022-12-23T03:31:24.549Z,109.20
2022-12-23T03:32:24.379Z,113.60
2022-12-23T03:33:24.354Z,105.50
2022-12-23T03:34:24.339Z,102.40
2022-12-23T03:35:24.372Z,112.50
2022-12-23T03:36:24.325Z,100.50
2022-12-23T03:37:24.335Z,105.80
2022-12-23T03:38:24.298Z,102.80
2022-12-23T03:39:24.283Z,106.60
2022-12-23T03:40:24.295Z,121.50
2022-12-23T03:41:24.294Z,102.20
2022-12-23T03:42:24.271Z,101.10
2022-12-23T03:43:24.210Z,109.70
2022-12-23T03:44:24.192Z,108.10
2022-12-23T03:45:40.995Z,106.80
2022-12-23T03:46:24.275Z,115.70
2022-12-23T03:47:24.176Z,107.70
2022-12-23T03:48:24.170Z,134.60
2022-12-23T03:49:24.196Z,111.20
2022-12-23T03:50:24.161Z,117.60
2022-12-23T03:51:24.141Z,101.70
2022-12-23T03:52:24.121Z,99.80
2022-12-23T03:53:24.094Z,104.40
2022-12-23T03:54:24.076Z,114.50
2022-12-23T03:55:24.062Z,101.00
2022-12-23T03:56:24.057Z,121.60
2022-12-23T03:57:24.046Z,103.80
2022-12-23T03:58:24.070Z,113.50
2022-12-23T03:59:24.059Z,126.90
2022-12-23T04:00:24.021Z,107.00
2022-12-23T04:01:24.009Z,109.00
2022-12-23T04:02:24.144Z,111.00
2022-12-23T04:03:24.036Z,115.80
2022-12-23T04:04:24.004Z,98.20
2022-12-23T04:05:23.919Z,103.40
2022-12-23T04:06:23.933Z,130.90
2022-12-23T04:07:23.905Z,110.50
2022-12-23T04:08:23.912Z,104.50
2022-12-23T04:09:23.861Z,97.30
2022-12-23T04:10:23.870Z,102.00
2022-12-23T04:11:23.846Z,114.90
2022-12-23T04:12:23.855Z,105.80
2022-12-23T04:13:23.857Z,100.60
2022-12-23T04:14:23.842Z,94.90
2022-12-23T04:15:23.851Z,112.10
2022-12-23T04:16:23.862Z,87.90
2022-12-23T04:17:23.777Z,99.90
2022-12-23T04:18:23.802Z,93.60
2022-12-23T04:19:23.735Z,98.70
2022-12-23T04:20:23.751Z,95.40
2022-12-23T04:21:23.729Z,112.80
2022-12-23T04:22:23.708Z,118.10
2022-12-23T04:23:23.702Z,101.40
2022-12-23T04:24:23.716Z,96.90
2022-12-23T04:25:23.651Z,96.60
2022-12-23T04:26:23.664Z,98.10
2022-12-23T04:27:23.668Z,102.20
2022-12-23T04:28:23.645Z,104.60
2022-12-23T04:29:23.624Z,112.80
2022-12-23T04:30:26.672Z,104.10
2022-12-23T04:31:23.646Z,90.40
2022-12-23T04:32:23.590Z,113.40
2022-12-23T04:33:23.578Z,130.10
2022-12-23T04:34:23.582Z,125.00
2022-12-23T04:35:23.590Z,107.00
2022-12-23T04:36:23.564Z,111.90
2022-12-23T04:37:23.515Z,117.90
2022-12-23T04:38:23.492Z,96.70
2022-12-23T04:39:23.494Z,118.60
2022-12-23T04:40:23.479Z,113.40
2022-12-23T04:41:23.456Z,93.90
2022-12-23T04:42:23.463Z,104.30
2022-12-23T04:43:23.437Z,116.50
2022-12-23T04:44:23.461Z,150.90
2022-12-23T04:45:23.399Z,146.20
2022-12-23T04:46:23.525Z,120.70
2022-12-23T04:47:23.395Z,115.90
2022-12-23T04:48:23.416Z,116.40
2022-12-23T04:49:23.360Z,134.60
2022-12-23T04:50:23.349Z,137.60
2022-12-23T04:51:23.335Z,131.70
2022-12-23T04:52:23.330Z,141.70
2022-12-23T04:53:23.299Z,143.20
2022-12-23T04:54:23.304Z,133.60
2022-12-23T04:55:23.319Z,128.20
2022-12-23T04:56:23.268Z,157.90
2022-12-23T04:57:23.255Z,119.30
2022-12-23T04:58:23.245Z,143.80
2022-12-23T04:59:23.241Z,119.70
2022-12-23T05:00:23.242Z,119.20
2022-12-23T05:01:23.228Z,138.60
2022-12-23T05:02:23.295Z,110.70
2022-12-23T05:03:23.272Z,141.40
2022-12-23T05:04:23.183Z,162.80
2022-12-23T05:05:23.149Z,154.10
2022-12-23T05:06:23.167Z,183.70
2022-12-23T05:07:23.141Z,229.40
2022-12-23T05:08:23.125Z,200.20
2022-12-23T05:09:23.084Z,234.30
2022-12-23T05:10:23.080Z,228.00
2022-12-23T05:11:23.082Z,248.00
2022-12-23T05:12:23.070Z,168.00
2022-12-23T05:13:23.047Z,163.30
2022-12-23T05:14:23.024Z,184.70
2022-12-23T05:15:23.037Z,160.40
2022-12-23T05:16:23.116Z,228.60
2022-12-23T05:17:23.004Z,208.60
2022-12-23T05:18:22.999Z,350.60
2022-12-23T05:19:22.961Z,250.10
2022-12-23T05:20:22.957Z,200.30
2022-12-23T05:21:22.950Z,203.90
2022-12-23T05:22:22.940Z,144.30
2022-12-23T05:23:22.912Z,273.50
2022-12-23T05:24:22.918Z,347.50
2022-12-23T05:25:22.884Z,240.70
2022-12-23T05:26:22.868Z,206.00
2022-12-23T05:27:22.867Z,196.80
2022-12-23T05:28:22.851Z,178.90
2022-12-23T05:29:22.839Z,145.00
2022-12-23T05:30:22.811Z,142.70
2022-12-23T05:31:22.936Z,195.40
2022-12-23T05:32:22.827Z,177.30
2022-12-23T05:33:22.843Z,174.00
2022-12-23T05:34:22.785Z,156.70
2022-12-23T05:35:22.755Z,211.80
2022-12-23T05:36:22.739Z,172.10
2022-12-23T05:37:22.732Z,175.50
2022-12-23T05:38:22.747Z,150.60
2022-12-23T05:39:22.698Z,163.70
2022-12-23T05:40:24.870Z,177.50
2022-12-23T05:41:22.683Z,201.90
2022-12-23T05:42:22.669Z,158.40
2022-12-23T05:43:22.686Z,135.70
2022-12-23T05:44:22.634Z,124.30
2022-12-23T05:45:22.627Z,109.10
2022-12-23T05:46:26.531Z,125.60
2022-12-23T05:47:22.614Z,127.50
2022-12-23T05:48:22.608Z,119.10
2022-12-23T05:49:22.594Z,122.30
2022-12-23T05:50:22.561Z,146.20
2022-12-23T05:51:22.566Z,212.50
2022-12-23T05:52:22.549Z,117.00
2022-12-23T05:53:22.516Z,155.30
2022-12-23T05:54:22.548Z,117.80
2022-12-23T05:55:22.483Z,123.20
2022-12-23T05:56:22.474Z,166.40
2022-12-23T05:57:22.473Z,116.80
2022-12-23T05:58:22.458Z,158.00
2022-12-23T05:59:25.373Z,130.80
2022-12-23T06:00:22.443Z,116.20
2022-12-23T06:01:22.425Z,121.60
2022-12-23T06:02:22.621Z,140.80
2022-12-23T06:03:22.645Z,122.80
2022-12-23T06:04:22.491Z,124.70
2022-12-23T06:05:22.388Z,144.10
2022-12-23T06:06:22.351Z,116.60
2022-12-23T06:07:22.366Z,115.50
2022-12-23T06:08:22.339Z,129.80
2022-12-23T06:09:22.324Z,141.60
2022-12-23T06:10:22.302Z,154.10
2022-12-23T06:11:22.300Z,125.80
2022-12-23T06:12:22.294Z,104.70
2022-12-23T06:13:22.258Z,123.80
2022-12-23T06:14:28.391Z,113.80
2022-12-23T06:15:22.264Z,117.50
2022-12-23T06:16:22.297Z,133.00
2022-12-23T06:17:22.233Z,102.90
2022-12-23T06:18:22.204Z,121.30
2022-12-23T06:19:22.202Z,120.40
2022-12-23T06:20:22.181Z,163.30
2022-12-23T06:21:22.187Z,106.90
2022-12-23T06:22:22.158Z,118.80
2022-12-23T06:23:22.157Z,95.60
2022-12-23T06:24:22.112Z,105.40
2022-12-23T06:25:22.099Z,121.80
2022-12-23T06:26:22.094Z,136.50
2022-12-23T06:27:22.084Z,102.80
2022-12-23T06:28:22.089Z,114.50
2022-12-23T06:29:22.072Z,99.50
2022-12-23T06:30:22.040Z,117.60
2022-12-23T06:31:22.142Z,93.80
2022-12-23T06:32:22.038Z,80.00
2022-12-23T06:33:22.022Z,84.00
2022-12-23T06:34:22.012Z,90.80
2022-12-23T06:35:21.995Z,85.90
2022-12-23T06:36:21.981Z,82.50
2022-12-23T06:37:21.998Z,115.30
2022-12-23T06:38:21.948Z,102.40
2022-12-23T06:39:21.942Z,86.60
2022-12-23T06:40:21.919Z,83.30
2022-12-23T06:41:21.916Z,84.80
2022-12-23T06:42:21.906Z,97.00
2022-12-23T06:43:21.894Z,91.00
2022-12-23T06:44:21.851Z,73.60
2022-12-23T06:45:21.855Z,101.90
2022-12-23T06:46:21.904Z,88.80
2022-12-23T06:47:21.860Z,96.50
2022-12-23T06:48:21.823Z,79.20
2022-12-23T06:49:21.799Z,85.00
2022-12-23T06:50:21.785Z,72.60
2022-12-23T06:51:21.763Z,85.10
2022-12-23T06:52:21.758Z,74.50
2022-12-23T06:53:21.750Z,69.60
2022-12-23T06:54:21.736Z,72.90
2022-12-23T06:55:21.723Z,71.60
2022-12-23T06:56:21.711Z,68.30
2022-12-23T06:57:21.708Z,72.80
2022-12-23T06:58:21.686Z,67.70
2022-12-23T06:59:21.683Z,75.70
2022-12-23T07:00:21.705Z,70.70
2022-12-23T07:01:21.697Z,71.30
2022-12-23T07:02:21.730Z,68.20
2022-12-23T07:03:21.688Z,74.30
2022-12-23T07:04:21.610Z,60.80
2022-12-23T07:05:21.604Z,59.30
2022-12-23T07:06:21.611Z,55.50
2022-12-23T07:07:21.582Z,58.10
2022-12-23T07:08:21.562Z,59.80
2022-12-23T07:09:21.580Z,56.90
2022-12-23T07:10:21.565Z,54.80
2022-12-23T07:11:21.496Z,60.80
2022-12-23T07:12:21.554Z,52.00
2022-12-23T07:13:21.508Z,61.00
2022-12-23T07:14:21.477Z,57.50
2022-12-23T07:15:21.470Z,51.10
2022-12-23T07:16:21.552Z,61.10
2022-12-23T07:17:21.434Z,50.10
2022-12-23T07:18:21.401Z,53.50
2022-12-23T07:19:21.419Z,55.50
2022-12-23T07:20:21.415Z,49.60
2022-12-23T07:21:28.566Z,56.70
2022-12-23T07:22:21.377Z,52.20
2022-12-23T07:23:21.369Z,54.10
2022-12-23T07:24:21.357Z,58.20
2022-12-23T07:25:21.364Z,54.70
2022-12-23T07:26:21.328Z,49.50
2022-12-23T07:27:21.309Z,55.30
2022-12-23T07:28:21.307Z,59.90
2022-12-23T07:29:21.304Z,55.70
2022-12-23T07:30:21.304Z,56.80
2022-12-23T07:31:21.380Z,63.20
2022-12-23T07:32:21.409Z,57.50
2022-12-23T07:33:21.271Z,59.00
2022-12-23T07:34:21.259Z,68.00
2022-12-23T07:35:21.219Z,64.90
2022-12-23T07:36:21.247Z,67.20
2022-12-23T07:37:21.197Z,73.90
2022-12-23T07:38:21.145Z,78.30
2022-12-23T07:39:21.160Z,75.30
2022-12-23T07:40:21.113Z,74.90
2022-12-23T07:41:21.117Z,76.10
2022-12-23T07:43:21.129Z,82.20
2022-12-23T07:44:21.057Z,93.00
2022-12-23T07:45:21.057Z,86.60
2022-12-23T07:46:21.138Z,93.70
2022-12-23T07:47:21.037Z,96.70
2022-12-23T07:48:21.020Z,95.30
2022-12-23T07:49:21.021Z,101.30
2022-12-23T07:50:21.022Z,118.40
2022-12-23T07:51:20.966Z,96.80
2022-12-23T07:52:20.979Z,100.90
2022-12-23T07:53:20.988Z,104.20
2022-12-23T07:54:20.955Z,99.70
2022-12-23T07:55:20.955Z,126.70
2022-12-23T07:56:20.901Z,113.60
2022-12-23T07:57:20.922Z,122.60
2022-12-23T07:58:20.931Z,128.10
2022-12-23T07:59:20.881Z,140.30
2022-12-23T08:00:20.897Z,124.90
2022-12-23T08:01:20.908Z,117.80
2022-12-23T08:02:20.983Z,128.50
2022-12-23T08:03:21.001Z,109.20
2022-12-23T08:04:20.874Z,129.50
2022-12-23T08:05:20.866Z,152.90
2022-12-23T08:06:20.779Z,156.30
2022-12-23T08:07:20.805Z,140.40
2022-12-23T08:08:20.754Z,160.00
2022-12-23T08:09:20.773Z,113.30
2022-12-23T08:10:20.758Z,120.20
2022-12-23T08:11:20.721Z,109.50
2022-12-23T08:12:20.710Z,131.30
2022-12-23T08:13:20.695Z,133.60
2022-12-23T08:14:20.677Z,177.20
2022-12-23T08:15:20.676Z,142.60
2022-12-23T08:16:20.715Z,124.80
2022-12-23T08:17:20.715Z,135.40
2022-12-23T08:18:20.650Z,129.60
2022-12-23T08:19:20.639Z,132.60
2022-12-23T08:20:20.605Z,153.10
2022-12-23T08:21:20.585Z,121.10
2022-12-23T08:22:20.584Z,109.40
2022-12-23T08:23:24.725Z,117.10
2022-12-23T08:24:20.554Z,140.60
2022-12-23T08:25:20.552Z,154.30
2022-12-23T08:26:20.537Z,128.00
2022-12-23T08:27:20.545Z,120.10
2022-12-23T08:28:20.490Z,127.70
2022-12-23T08:29:20.476Z,170.00
2022-12-23T08:30:20.540Z,169.30
2022-12-23T08:31:20.523Z,135.50
2022-12-23T08:32:20.431Z,131.50
2022-12-23T08:33:20.429Z,130.30
2022-12-23T08:34:20.415Z,140.10
2022-12-23T08:35:20.406Z,138.60
2022-12-23T08:36:23.081Z,168.40
2022-12-23T08:37:20.405Z,113.00
2022-12-23T08:38:20.337Z,133.30
2022-12-23T08:39:20.363Z,108.00
2022-12-23T08:40:20.342Z,104.00
2022-12-23T08:41:20.324Z,118.90
2022-12-23T08:42:20.327Z,106.80
2022-12-23T08:43:20.321Z,95.70
2022-12-23T08:44:20.286Z,92.20
2022-12-23T08:45:20.276Z,80.70
2022-12-23T08:46:20.340Z,82.10
2022-12-23T08:47:20.254Z,81.60
2022-12-23T08:48:20.235Z,95.30
2022-12-23T08:49:20.232Z,81.30
2022-12-23T08:50:20.210Z,77.90
2022-12-23T08:51:20.186Z,78.60
2022-12-23T08:52:20.160Z,81.20
2022-12-23T08:53:20.217Z,66.40
2022-12-23T08:54:20.145Z,66.20
2022-12-23T08:55:20.155Z,72.80
2022-12-23T08:56:20.125Z,69.70
2022-12-23T08:57:20.119Z,70.10
2022-12-23T08:58:20.079Z,72.60
2022-12-23T08:59:20.211Z,69.60
2022-12-23T09:00:20.054Z,74.20
2022-12-23T09:01:20.129Z,63.50
2022-12-23T09:02:20.190Z,69.90
2022-12-23T09:03:20.184Z,63.20
2022-12-23T09:04:20.031Z,68.00
2022-12-23T09:05:20.028Z,59.80
2022-12-23T09:06:26.505Z,64.30
2022-12-23T09:07:19.985Z,75.20
2022-12-23T09:08:19.945Z,69.10
2022-12-23T09:09:20.140Z,64.50
2022-12-23T09:10:19.981Z,63.00
2022-12-23T09:11:19.953Z,62.00
2022-12-23T09:12:19.960Z,59.60
2022-12-23T09:13:27.801Z,64.10
2022-12-23T09:14:19.900Z,62.40
2022-12-23T09:15:19.926Z,59.80
2022-12-23T09:16:19.924Z,57.20
2022-12-23T09:17:19.882Z,49.80
2022-12-23T09:18:19.858Z,55.50
2022-12-23T09:19:19.912Z,59.90
2022-12-23T09:20:19.866Z,60.40
2022-12-23T09:21:19.881Z,54.00
2022-12-23T09:22:19.810Z,52.10
2022-12-23T09:23:19.756Z,60.10
2022-12-23T09:24:19.762Z,63.10
2022-12-23T09:25:19.757Z,54.50
2022-12-23T09:26:19.754Z,57.30
2022-12-23T09:27:19.743Z,62.90
2022-12-23T09:28:19.687Z,54.90
2022-12-23T09:29:19.732Z,57.00
2022-12-23T09:30:19.672Z,59.50
2022-12-23T09:31:21.654Z,57.60
2022-12-23T09:32:19.648Z,50.60
2022-12-23T09:33:19.652Z,50.20
2022-12-23T09:34:19.647Z,52.70
2022-12-23T09:35:19.636Z,51.10
2022-12-23T09:36:19.594Z,56.50
2022-12-23T09:37:19.585Z,54.00
2022-12-23T09:38:19.556Z,57.40
2022-12-23T09:39:19.561Z,51.50
2022-12-23T09:40:19.534Z,58.80
2022-12-23T09:41:19.524Z,52.90
2022-12-23T09:42:19.535Z,41.10
2022-12-23T09:43:19.519Z,47.00
2022-12-23T09:44:19.489Z,50.30
2022-12-23T09:45:19.472Z,51.60
2022-12-23T09:46:19.459Z,40.90
2022-12-23T09:47:19.474Z,39.60
2022-12-23T09:48:19.425Z,38.70
2022-12-23T09:49:20.020Z,41.00
2022-12-23T09:50:19.403Z,46.50
2022-12-23T09:51:19.412Z,46.50
2022-12-23T09:52:19.390Z,41.30
2022-12-23T09:53:19.373Z,42.00
2022-12-23T09:54:19.370Z,37.80
2022-12-23T09:55:19.346Z,35.90
2022-12-23T09:56:19.373Z,37.30
2022-12-23T09:57:19.341Z,43.10
2022-12-23T09:58:19.306Z,42.20
2022-12-23T09:59:19.293Z,44.20
2022-12-23T10:00:19.308Z,39.60
2022-12-23T10:01:19.375Z,31.70
2022-12-23T10:02:19.464Z,33.90
2022-12-23T10:03:19.416Z,34.20
2022-12-23T10:04:19.314Z,34.10
2022-12-23T10:05:19.228Z,40.60
2022-12-23T10:06:19.212Z,39.10
2022-12-23T10:07:19.196Z,35.30
2022-12-23T10:08:19.196Z,33.10
2022-12-23T10:09:19.183Z,36.10
2022-12-23T10:10:19.215Z,43.60
2022-12-23T10:11:19.117Z,31.90
2022-12-23T10:12:25.272Z,37.40
2022-12-23T10:13:19.098Z,36.80
2022-12-23T10:14:19.106Z,34.20
2022-12-23T10:15:19.089Z,37.00
2022-12-23T10:16:19.174Z,38.60
2022-12-23T10:17:19.038Z,36.50
2022-12-23T10:18:19.049Z,28.80
2022-12-23T10:19:19.010Z,31.00
2022-12-23T10:20:19.041Z,29.10
2022-12-23T10:21:18.993Z,32.10
2022-12-23T10:22:18.989Z,35.20
2022-12-23T10:23:18.971Z,32.60
2022-12-23T10:24:18.974Z,31.70
2022-12-23T10:25:18.939Z,24.50
2022-12-23T10:26:18.914Z,23.00
2022-12-23T10:27:18.933Z,26.30
2022-12-23T10:28:18.910Z,26.70
2022-12-23T10:29:19.808Z,28.30
2022-12-23T10:30:57.271Z,27.80
2022-12-23T10:31:39.806Z,28.40
2022-12-23T10:32:18.943Z,26.80
2022-12-23T10:33:18.817Z,27.70
2022-12-23T10:34:18.837Z,36.20
2022-12-23T10:35:18.798Z,29.20
2022-12-23T10:36:18.874Z,29.20
2022-12-23T10:37:18.796Z,30.30
2022-12-23T10:38:18.778Z,28.50
2022-12-23T10:39:18.743Z,29.10
2022-12-23T10:40:18.745Z,31.70
2022-12-23T10:41:18.716Z,29.60
2022-12-23T10:42:18.728Z,30.80
2022-12-23T10:43:18.695Z,32.80
2022-12-23T10:44:18.686Z,31.90
2022-12-23T10:45:18.674Z,28.50
2022-12-23T10:46:18.690Z,27.50
2022-12-23T10:47:18.662Z,30.10
2022-12-23T10:48:18.656Z,29.10
2022-12-23T10:49:18.619Z,30.20
2022-12-23T10:50:18.607Z,24.50
2022-12-23T10:51:18.669Z,24.30
2022-12-23T10:52:18.589Z,24.70
2022-12-23T10:53:18.580Z,27.80
2022-12-23T10:54:18.561Z,28.30
2022-12-23T10:55:18.539Z,27.50
2022-12-23T10:56:18.534Z,26.10
2022-12-23T10:57:18.514Z,27.60
2022-12-23T10:58:18.541Z,26.90
2022-12-23T10:59:18.514Z,22.30
2022-12-23T11:00:18.476Z,25.80
2022-12-23T11:01:26.214Z,28.40
2022-12-23T11:02:18.629Z,22.60
2022-12-23T11:03:18.623Z,22.60
2022-12-23T11:04:18.443Z,23.20
2022-12-23T11:05:18.416Z,25.80
2022-12-23T11:06:18.432Z,24.30
2022-12-23T11:07:43.497Z,18.50
2022-12-23T11:08:18.416Z,20.10
2022-12-23T11:09:18.380Z,18.60
2022-12-23T11:10:18.340Z,17.40
2022-12-23T11:11:18.318Z,18.60
2022-12-23T11:12:18.341Z,16.60
2022-12-23T11:13:18.311Z,17.90
2022-12-23T11:14:18.286Z,16.10
2022-12-23T11:15:18.281Z,15.60
2022-12-23T11:16:18.304Z,15.10
2022-12-23T11:17:18.282Z,17.70
2022-12-23T11:18:18.260Z,18.90
2022-12-23T11:19:18.228Z,15.70
2022-12-23T11:20:18.249Z,17.70
2022-12-23T11:21:18.212Z,16.70
2022-12-23T11:22:18.212Z,13.30
2022-12-23T11:23:18.178Z,16.20
2022-12-23T11:24:18.176Z,16.90
2022-12-23T11:25:18.170Z,13.40
2022-12-23T11:26:18.147Z,13.30
2022-12-23T11:27:18.165Z,13.10
2022-12-23T11:28:18.127Z,15.10
2022-12-23T11:29:18.101Z,13.50
2022-12-23T11:30:18.072Z,12.10
2022-12-23T11:31:18.111Z,11.60
2022-12-23T11:32:18.050Z,10.30
2022-12-23T11:33:18.050Z,10.10
2022-12-23T11:34:18.054Z,10.30
2022-12-23T11:35:18.071Z,10.60
2022-12-23T11:36:18.029Z,12.30
2022-12-23T11:37:17.988Z,12.30
2022-12-23T11:38:18.068Z,12.70
2022-12-23T11:39:17.960Z,11.40
2022-12-23T11:40:17.973Z,11.70
2022-12-23T11:41:17.922Z,10.00
2022-12-23T11:42:17.933Z,10.10
2022-12-23T11:43:17.921Z,11.50
2022-12-23T11:44:17.912Z,12.50
2022-12-23T11:45:17.908Z,12.60
2022-12-23T11:46:17.932Z,11.90
2022-12-23T11:47:17.956Z,13.00
2022-12-23T11:48:17.857Z,10.50
2022-12-23T11:49:17.840Z,8.70
2022-12-23T11:50:17.815Z,12.10
2022-12-23T11:51:17.833Z,12.90
2022-12-23T11:52:17.829Z,11.60
2022-12-23T11:53:17.779Z,12.30
2022-12-23T11:54:17.819Z,10.90
2022-12-23T11:55:17.799Z,12.40
2022-12-23T11:56:17.857Z,10.20
2022-12-23T11:57:17.839Z,11.50
2022-12-23T11:58:17.838Z,11.90
2022-12-23T11:59:17.719Z,12.60
2022-12-23T12:00:17.779Z,11.40
2022-12-23T12:01:17.677Z,10.30
2022-12-23T12:02:17.741Z,10.60
2022-12-23T12:03:17.721Z,9.60
2022-12-23T12:04:17.652Z,10.80
2022-12-23T12:05:17.661Z,13.60
2022-12-23T12:06:17.615Z,11.30
2022-12-23T12:07:17.607Z,10.60
2022-12-23T12:08:17.620Z,11.70
2022-12-23T12:09:17.570Z,12.50
2022-12-23T12:10:17.585Z,13.00
2022-12-23T12:11:17.571Z,11.70
2022-12-23T12:12:17.553Z,11.60
2022-12-23T12:13:17.543Z,11.70
2022-12-23T12:14:17.537Z,11.20
2022-12-23T12:15:17.516Z,11.10
2022-12-23T12:16:17.583Z,11.40
2022-12-23T12:17:17.515Z,13.10
2022-12-23T12:18:17.462Z,13.00
2022-12-23T12:19:17.460Z,13.40
2022-12-23T12:20:17.414Z,13.80
2022-12-23T12:21:17.417Z,14.00
2022-12-23T12:22:17.431Z,13.90
2022-12-23T12:23:17.398Z,14.10
2022-12-23T12:24:19.177Z,13.80
2022-12-23T12:25:17.398Z,14.50
2022-12-23T12:26:17.357Z,14.90
2022-12-23T12:27:17.335Z,14.80
2022-12-23T12:28:17.323Z,16.00
2022-12-23T12:29:17.305Z,18.40
2022-12-23T12:30:17.307Z,17.00
2022-12-23T12:31:17.391Z,15.50
2022-12-23T12:32:17.263Z,17.10
2022-12-23T12:33:17.265Z,17.40
2022-12-23T12:34:17.284Z,17.00
2022-12-23T12:35:17.224Z,17.50
2022-12-23T12:36:17.296Z,19.00
2022-12-23T12:37:17.194Z,18.40
2022-12-23T12:38:17.213Z,17.50
2022-12-23T12:39:17.196Z,18.00
2022-12-23T12:40:17.186Z,17.50
2022-12-23T12:41:17.173Z,18.00
2022-12-23T12:42:17.165Z,19.50
2022-12-23T12:43:17.113Z,18.40
2022-12-23T12:44:17.107Z,18.90